sensor_id;sensor_type;location;lat;lon;timestamp;pressure;altitude;pressure_sealevel;temperature;humidity
11523;BME280;40093;43.224;27.910;2022-11-23T00:01:28;99781.22;;;15.07;100.00
11523;BME280;40093;43.224;27.910;2022-11-23T00:03:56;99776.44;;;15.08;100.00
11523;BME280;40093;43.224;27.910;2022-11-23T00:06:24;99774.03;;;15.10;100.00
11523;BME280;40093;43.224;27.910;2022-11-23T00:08:52;99768.44;;;15.13;100.00
11523;BME280;40093;43.224;27.910;2022-11-23T00:11:20;99767.97;;;15.18;100.00
11523;BME280;40093;43.224;27.910;2022-11-23T00:13:50;99768.03;;;15.15;100.00
11523;BME280;40093;43.224;27.910;2022-11-23T00:16:18;99776.69;;;15.17;100.00
11523;BME280;40093;43.224;27.910;2022-11-23T00:18:45;99763.69;;;15.14;100.00
11523;BME280;40093;43.224;27.910;2022-11-23T00:21:14;99766.88;;;15.12;100.00
11523;BME280;40093;43.224;27.910;2022-11-23T00:23:42;99760.63;;;15.08;100.00
11523;BME280;40093;43.224;27.910;2022-11-23T00:26:09;99759.06;;;15.07;100.00
11523;BME280;40093;43.224;27.910;2022-11-23T00:28:37;99758.56;;;15.12;100.00
11523;BME280;40093;43.224;27.910;2022-11-23T00:31:07;99757.34;;;15.13;100.00
11523;BME280;40093;43.224;27.910;2022-11-23T00:33:34;99758.13;;;15.14;100.00
11523;BME280;40093;43.224;27.910;2022-11-23T00:36:03;99754.56;;;15.13;100.00
11523;BME280;40093;43.224;27.910;2022-11-23T00:38:31;99756.13;;;15.14;100.00
11523;BME280;40093;43.224;27.910;2022-11-23T00:40:59;99751.75;;;15.17;100.00
11523;BME280;40093;43.224;27.910;2022-11-23T00:43:26;99747.75;;;15.18;100.00
11523;BME280;40093;43.224;27.910;2022-11-23T00:46:07;99745.78;;;15.18;100.00
11523;BME280;40093;43.224;27.910;2022-11-23T00:48:35;99750.41;;;15.25;100.00
11523;BME280;40093;43.224;27.910;2022-11-23T00:51:04;99740.53;;;15.24;100.00
11523;BME280;40093;43.224;27.910;2022-11-23T00:53:31;99728.59;;;15.27;100.00
11523;BME280;40093;43.224;27.910;2022-11-23T00:55:58;99734.53;;;15.25;100.00
11523;BME280;40093;43.224;27.910;2022-11-23T00:58:25;99731.78;;;15.25;100.00
11523;BME280;40093;43.224;27.910;2022-11-23T01:01:04;99721.03;;;15.27;100.00
11523;BME280;40093;43.224;27.910;2022-11-23T01:03:32;99723.00;;;15.30;100.00
11523;BME280;40093;43.224;27.910;2022-11-23T01:06:04;99715.03;;;15.32;100.00
11523;BME280;40093;43.224;27.910;2022-11-23T01:08:31;99715.03;;;15.32;100.00
11523;BME280;40093;43.224;27.910;2022-11-23T01:11:00;99711.75;;;15.37;100.00
11523;BME280;40093;43.224;27.910;2022-11-23T01:13:27;99692.81;;;15.36;100.00
11523;BME280;40093;43.224;27.910;2022-11-23T01:15:55;99701.47;;;15.38;100.00
11523;BME280;40093;43.224;27.910;2022-11-23T01:18:22;99686.03;;;15.37;100.00
11523;BME280;40093;43.224;27.910;2022-11-23T01:20:51;99682.00;;;15.41;100.00
11523;BME280;40093;43.224;27.910;2022-11-23T01:23:18;99676.44;;;15.41;100.00
11523;BME280;40093;43.224;27.910;2022-11-23T01:25:46;99664.28;;;15.35;100.00
11523;BME280;40093;43.224;27.910;2022-11-23T01:28:12;99663.53;;;15.35;100.00
11523;BME280;40093;43.224;27.910;2022-11-23T01:30:40;99674.53;;;15.38;100.00
11523;BME280;40093;43.224;27.910;2022-11-23T01:33:07;99671.25;;;15.43;100.00
11523;BME280;40093;43.224;27.910;2022-11-23T01:35:34;99676.78;;;15.43;100.00
11523;BME280;40093;43.224;27.910;2022-11-23T01:38:02;99676.72;;;15.47;100.00
11523;BME280;40093;43.224;27.910;2022-11-23T01:40:30;99665.78;;;15.40;100.00
11523;BME280;40093;43.224;27.910;2022-11-23T01:42:58;99659.81;;;15.41;100.00
11523;BME280;40093;43.224;27.910;2022-11-23T01:45:32;99669.56;;;15.49;100.00
11523;BME280;40093;43.224;27.910;2022-11-23T01:47:59;99667.53;;;15.50;100.00
11523;BME280;40093;43.224;27.910;2022-11-23T01:50:27;99671.81;;;15.54;100.00
11523;BME280;40093;43.224;27.910;2022-11-23T01:52:54;99662.28;;;15.55;100.00
11523;BME280;40093;43.224;27.910;2022-11-23T01:55:24;99664.69;;;15.53;100.00
11523;BME280;40093;43.224;27.910;2022-11-23T01:57:52;99657.94;;;15.54;100.00
11523;BME280;40093;43.224;27.910;2022-11-23T02:00:19;99661.41;;;15.58;100.00
11523;BME280;40093;43.224;27.910;2022-11-23T02:02:50;99646.78;;;15.58;100.00
11523;BME280;40093;43.224;27.910;2022-11-23T02:05:20;99640.78;;;15.59;100.00
11523;BME280;40093;43.224;27.910;2022-11-23T02:07:48;99636.81;;;15.60;100.00
11523;BME280;40093;43.224;27.910;2022-11-23T02:10:16;99629.69;;;15.59;100.00
11523;BME280;40093;43.224;27.910;2022-11-23T02:12:45;99626.50;;;15.61;100.00
11523;BME280;40093;43.224;27.910;2022-11-23T02:15:12;99616.19;;;15.61;100.00
11523;BME280;40093;43.224;27.910;2022-11-23T02:17:40;99614.19;;;15.62;100.00
11523;BME280;40093;43.224;27.910;2022-11-23T02:20:09;99605.88;;;15.62;100.00
11523;BME280;40093;43.224;27.910;2022-11-23T02:22:41;99608.22;;;15.63;100.00
11523;BME280;40093;43.224;27.910;2022-11-23T02:25:18;99612.56;;;15.64;100.00
11523;BME280;40093;43.224;27.910;2022-11-23T02:27:51;99603.38;;;15.67;100.00
11523;BME280;40093;43.224;27.910;2022-11-23T02:30:18;99597.81;;;15.67;100.00
11523;BME280;40093;43.224;27.910;2022-11-23T02:32:45;99588.28;;;15.68;100.00
11523;BME280;40093;43.224;27.910;2022-11-23T02:35:12;99596.19;;;15.70;100.00
11523;BME280;40093;43.224;27.910;2022-11-23T02:37:40;99602.53;;;15.70;100.00
11523;BME280;40093;43.224;27.910;2022-11-23T02:40:16;99596.53;;;15.72;100.00
11523;BME280;40093;43.224;27.910;2022-11-23T02:42:44;99594.53;;;15.72;100.00
11523;BME280;40093;43.224;27.910;2022-11-23T02:45:20;99591.44;;;15.70;100.00
11523;BME280;40093;43.224;27.910;2022-11-23T02:47:49;99591.78;;;15.72;100.00
11523;BME280;40093;43.224;27.910;2022-11-23T02:50:16;99586.22;;;15.72;100.00
11523;BME280;40093;43.224;27.910;2022-11-23T02:52:44;99582.59;;;15.75;100.00
11523;BME280;40093;43.224;27.910;2022-11-23T02:55:11;99575.47;;;15.74;100.00
11523;BME280;40093;43.224;27.910;2022-11-23T02:57:38;99588.91;;;15.76;100.00
11523;BME280;40093;43.224;27.910;2022-11-23T03:00:06;99567.91;;;15.75;100.00
11523;BME280;40093;43.224;27.910;2022-11-23T03:02:35;99576.69;;;15.73;100.00
11523;BME280;40093;43.224;27.910;2022-11-23T03:05:02;99586.16;;;15.76;100.00
11523;BME280;40093;43.224;27.910;2022-11-23T03:07:29;99571.47;;;15.75;100.00
11523;BME280;40093;43.224;27.910;2022-11-23T03:09:56;99572.34;;;15.72;100.00
11523;BME280;40093;43.224;27.910;2022-11-23T03:12:23;99569.13;;;15.74;100.00
11523;BME280;40093;43.224;27.910;2022-11-23T03:14:50;99541.59;;;15.67;100.00
11523;BME280;40093;43.224;27.910;2022-11-23T03:17:17;99557.69;;;15.72;100.00
11523;BME280;40093;43.224;27.910;2022-11-23T03:19:45;99552.50;;;15.74;100.00
11523;BME280;40093;43.224;27.910;2022-11-23T03:22:12;99560.38;;;15.75;100.00
11523;BME280;40093;43.224;27.910;2022-11-23T03:24:39;99540.63;;;15.73;100.00
11523;BME280;40093;43.224;27.910;2022-11-23T03:27:06;99536.63;;;15.74;100.00
11523;BME280;40093;43.224;27.910;2022-11-23T03:29:33;99539.00;;;15.76;100.00
11523;BME280;40093;43.224;27.910;2022-11-23T03:32:00;99536.09;;;15.79;100.00
11523;BME280;40093;43.224;27.910;2022-11-23T03:34:27;99527.78;;;15.79;100.00
11523;BME280;40093;43.224;27.910;2022-11-23T03:36:55;99530.13;;;15.81;100.00
11523;BME280;40093;43.224;27.910;2022-11-23T03:39:22;99534.13;;;15.80;100.00
11523;BME280;40093;43.224;27.910;2022-11-23T03:41:49;99526.56;;;15.80;100.00
11523;BME280;40093;43.224;27.910;2022-11-23T03:44:16;99519.19;;;15.74;100.00
11523;BME280;40093;43.224;27.910;2022-11-23T03:46:43;99532.13;;;15.80;100.00
11523;BME280;40093;43.224;27.910;2022-11-23T03:49:10;99515.59;;;15.77;100.00
11523;BME280;40093;43.224;27.910;2022-11-23T03:51:38;99509.91;;;15.80;100.00
11523;BME280;40093;43.224;27.910;2022-11-23T03:54:07;99516.00;;;15.75;100.00
11523;BME280;40093;43.224;27.910;2022-11-23T03:56:34;99526.22;;;15.78;100.00
11523;BME280;40093;43.224;27.910;2022-11-23T03:59:01;99511.13;;;15.79;100.00
11523;BME280;40093;43.224;27.910;2022-11-23T04:01:28;99515.38;;;15.84;100.00
11523;BME280;40093;43.224;27.910;2022-11-23T04:03:56;99504.75;;;15.82;100.00
11523;BME280;40093;43.224;27.910;2022-11-23T04:06:23;99500.75;;;15.83;100.00
11523;BME280;40093;43.224;27.910;2022-11-23T04:08:50;99501.44;;;15.87;100.00
11523;BME280;40093;43.224;27.910;2022-11-23T04:11:18;99508.19;;;15.86;100.00
11523;BME280;40093;43.224;27.910;2022-11-23T04:13:45;99500.66;;;15.87;100.00
11523;BME280;40093;43.224;27.910;2022-11-23T04:16:12;99488.78;;;15.86;100.00
11523;BME280;40093;43.224;27.910;2022-11-23T04:18:39;99487.97;;;15.86;100.00
11523;BME280;40093;43.224;27.910;2022-11-23T04:21:06;99491.22;;;15.84;100.00
11523;BME280;40093;43.224;27.910;2022-11-23T04:23:33;99492.84;;;15.82;100.00
11523;BME280;40093;43.224;27.910;2022-11-23T04:26:00;99486.53;;;15.81;100.00
11523;BME280;40093;43.224;27.910;2022-11-23T04:28:29;99500.91;;;15.76;100.00
11523;BME280;40093;43.224;27.910;2022-11-23T04:30:56;99511.06;;;15.83;100.00
11523;BME280;40093;43.224;27.910;2022-11-23T04:33:23;99499.19;;;15.82;100.00
11523;BME280;40093;43.224;27.910;2022-11-23T04:35:50;99494.50;;;15.79;100.00
11523;BME280;40093;43.224;27.910;2022-11-23T04:38:17;99487.47;;;15.75;100.00
11523;BME280;40093;43.224;27.910;2022-11-23T04:40:46;99481.53;;;15.60;100.00
11523;BME280;40093;43.224;27.910;2022-11-23T04:43:13;99475.47;;;15.49;100.00
11523;BME280;40093;43.224;27.910;2022-11-23T04:45:42;99483.59;;;15.40;100.00
11523;BME280;40093;43.224;27.910;2022-11-23T04:48:10;99478.06;;;15.40;100.00
11523;BME280;40093;43.224;27.910;2022-11-23T04:50:37;99470.69;;;15.34;100.00
11523;BME280;40093;43.224;27.910;2022-11-23T04:53:04;99475.56;;;15.26;100.00
11523;BME280;40093;43.224;27.910;2022-11-23T04:55:31;99453.72;;;15.12;100.00
11523;BME280;40093;43.224;27.910;2022-11-23T04:57:59;99478.25;;;15.14;100.00
11523;BME280;40093;43.224;27.910;2022-11-23T05:00:26;99487.78;;;15.13;100.00
11523;BME280;40093;43.224;27.910;2022-11-23T05:02:57;99461.69;;;15.10;100.00
11523;BME280;40093;43.224;27.910;2022-11-23T05:05:24;99467.94;;;15.14;100.00
11523;BME280;40093;43.224;27.910;2022-11-23T05:07:51;99471.41;;;15.18;100.00
11523;BME280;40093;43.224;27.910;2022-11-23T05:10:18;99458.41;;;15.15;100.00
11523;BME280;40093;43.224;27.910;2022-11-23T05:12:45;99456.78;;;15.18;100.00
11523;BME280;40093;43.224;27.910;2022-11-23T05:15:12;99450.28;;;15.24;100.00
11523;BME280;40093;43.224;27.910;2022-11-23T05:17:40;99458.16;;;15.26;100.00
11523;BME280;40093;43.224;27.910;2022-11-23T05:20:09;99454.53;;;15.29;100.00
11523;BME280;40093;43.224;27.910;2022-11-23T05:22:37;99454.47;;;15.32;100.00
11523;BME280;40093;43.224;27.910;2022-11-23T05:25:04;99457.94;;;15.36;100.00
11523;BME280;40093;43.224;27.910;2022-11-23T05:27:31;99439.50;;;15.30;100.00
11523;BME280;40093;43.224;27.910;2022-11-23T05:29:58;99454.31;;;15.39;100.00
11523;BME280;40093;43.224;27.910;2022-11-23T05:32:25;99454.31;;;15.39;100.00
11523;BME280;40093;43.224;27.910;2022-11-23T05:34:52;99440.63;;;15.32;100.00
11523;BME280;40093;43.224;27.910;2022-11-23T05:37:20;99449.72;;;15.33;100.00
11523;BME280;40093;43.224;27.910;2022-11-23T05:39:47;99448.84;;;15.36;100.00
11523;BME280;40093;43.224;27.910;2022-11-23T05:42:14;99447.22;;;15.38;100.00
11523;BME280;40093;43.224;27.910;2022-11-23T05:44:41;99444.78;;;15.40;100.00
11523;BME280;40093;43.224;27.910;2022-11-23T05:47:08;99444.78;;;15.40;100.00
11523;BME280;40093;43.224;27.910;2022-11-23T05:49:35;99437.56;;;15.43;100.00
11523;BME280;40093;43.224;27.910;2022-11-23T05:52:02;99455.69;;;15.47;100.00
11523;BME280;40093;43.224;27.910;2022-11-23T05:54:30;99454.03;;;15.50;100.00
11523;BME280;40093;43.224;27.910;2022-11-23T05:56:57;99439.41;;;15.49;100.00
11523;BME280;40093;43.224;27.910;2022-11-23T05:59:24;99441.31;;;15.52;100.00
11523;BME280;40093;43.224;27.910;2022-11-23T06:01:51;99427.09;;;15.50;100.00
11523;BME280;40093;43.224;27.910;2022-11-23T06:04:18;99451.19;;;15.53;100.00
11523;BME280;40093;43.224;27.910;2022-11-23T06:06:44;99435.78;;;15.52;100.00
11523;BME280;40093;43.224;27.910;2022-11-23T06:09:11;99439.41;;;15.49;100.00
11523;BME280;40093;43.224;27.910;2022-11-23T06:11:39;99442.94;;;15.50;100.00
11523;BME280;40093;43.224;27.910;2022-11-23T06:14:06;99431.88;;;15.50;100.00
11523;BME280;40093;43.224;27.910;2022-11-23T06:16:33;99441.75;;;15.51;100.00
11523;BME280;40093;43.224;27.910;2022-11-23T06:19:00;99425.56;;;15.49;100.00
11523;BME280;40093;43.224;27.910;2022-11-23T06:21:28;99433.00;;;15.52;100.00
11523;BME280;40093;43.224;27.910;2022-11-23T06:23:55;99441.66;;;15.54;100.00
11523;BME280;40093;43.224;27.910;2022-11-23T06:26:21;99449.09;;;15.57;100.00
11523;BME280;40093;43.224;27.910;2022-11-23T06:28:50;99437.16;;;15.60;100.00
11523;BME280;40093;43.224;27.910;2022-11-23T06:31:17;99439.56;;;15.58;100.00
11523;BME280;40093;43.224;27.910;2022-11-23T06:33:44;99434.81;;;15.59;100.00
11523;BME280;40093;43.224;27.910;2022-11-23T06:36:11;99445.91;;;15.59;100.00
11523;BME280;40093;43.224;27.910;2022-11-23T06:38:38;99435.94;;;15.61;100.00
11523;BME280;40093;43.224;27.910;2022-11-23T06:41:05;99425.69;;;15.58;100.00
11523;BME280;40093;43.224;27.910;2022-11-23T06:43:31;99419.63;;;15.63;100.00
11523;BME280;40093;43.224;27.910;2022-11-23T06:46:02;99423.09;;;15.67;100.00
11523;BME280;40093;43.224;27.910;2022-11-23T06:48:29;99427.41;;;15.68;100.00
11523;BME280;40093;43.224;27.910;2022-11-23T06:50:57;99423.78;;;15.71;100.00
11523;BME280;40093;43.224;27.910;2022-11-23T06:53:24;99423.44;;;15.69;100.00
11523;BME280;40093;43.224;27.910;2022-11-23T06:55:51;99424.13;;;15.73;100.00
11523;BME280;40093;43.224;27.910;2022-11-23T06:58:19;99422.56;;;15.72;100.00
11523;BME280;40093;43.224;27.910;2022-11-23T07:00:45;99409.81;;;15.75;100.00
11523;BME280;40093;43.224;27.910;2022-11-23T07:03:18;99413.03;;;15.73;100.00
11523;BME280;40093;43.224;27.910;2022-11-23T07:05:45;99423.25;;;15.76;100.00
11523;BME280;40093;43.224;27.910;2022-11-23T07:08:12;99419.59;;;15.79;100.00
11523;BME280;40093;43.224;27.910;2022-11-23T07:10:39;99419.59;;;15.79;100.00
11523;BME280;40093;43.224;27.910;2022-11-23T07:13:07;99415.97;;;15.82;100.00
11523;BME280;40093;43.224;27.910;2022-11-23T07:15:35;99423.94;;;15.80;100.00
11523;BME280;40093;43.224;27.910;2022-11-23T07:18:02;99414.41;;;15.81;100.00
11523;BME280;40093;43.224;27.910;2022-11-23T07:20:31;99419.16;;;15.81;100.00
11523;BME280;40093;43.224;27.910;2022-11-23T07:23:00;99405.41;;;15.77;100.00
11523;BME280;40093;43.224;27.910;2022-11-23T07:25:29;99406.53;;;15.80;100.00
11523;BME280;40093;43.224;27.910;2022-11-23T07:27:56;99420.06;;;15.78;100.00
11523;BME280;40093;43.224;27.910;2022-11-23T07:30:24;99420.22;;;15.71;100.00
11523;BME280;40093;43.224;27.910;2022-11-23T07:32:51;99422.25;;;15.70;100.00
11523;BME280;40093;43.224;27.910;2022-11-23T07:35:18;99412.00;;;15.67;100.00
11523;BME280;40093;43.224;27.910;2022-11-23T07:37:47;99440.28;;;15.62;100.00
11523;BME280;40093;43.224;27.910;2022-11-23T07:40:14;99419.63;;;15.63;100.00
11523;BME280;40093;43.224;27.910;2022-11-23T07:42:41;99420.53;;;15.60;100.00
11523;BME280;40093;43.224;27.910;2022-11-23T07:45:08;99416.53;;;15.61;100.00
11523;BME280;40093;43.224;27.910;2022-11-23T07:47:38;99412.19;;;15.60;100.00
11523;BME280;40093;43.224;27.910;2022-11-23T07:50:08;99409.44;;;15.60;100.00
11523;BME280;40093;43.224;27.910;2022-11-23T07:52:37;99401.09;;;15.60;100.00
11523;BME280;40093;43.224;27.910;2022-11-23T07:55:08;99397.53;;;15.60;100.00
11523;BME280;40093;43.224;27.910;2022-11-23T07:57:35;99410.69;;;15.72;100.00
11523;BME280;40093;43.224;27.910;2022-11-23T08:00:02;99399.69;;;15.68;100.00
11523;BME280;40093;43.224;27.910;2022-11-23T08:02:30;99400.38;;;15.72;100.00
11523;BME280;40093;43.224;27.910;2022-11-23T08:04:57;99407.28;;;15.80;100.00
11523;BME280;40093;43.224;27.910;2022-11-23T08:07:24;99403.66;;;15.83;100.00
11523;BME280;40093;43.224;27.910;2022-11-23T08:09:51;99407.44;;;15.89;100.00
11523;BME280;40093;43.224;27.910;2022-11-23T08:12:19;99405.72;;;15.95;100.00
11523;BME280;40093;43.224;27.910;2022-11-23T08:14:46;99406.38;;;15.99;100.00
11523;BME280;40093;43.224;27.910;2022-11-23T08:17:13;99404.41;;;16.00;100.00
11523;BME280;40093;43.224;27.910;2022-11-23T08:19:40;99383.50;;;15.95;100.00
11523;BME280;40093;43.224;27.910;2022-11-23T08:22:06;99389.22;;;16.04;100.00
11523;BME280;40093;43.224;27.910;2022-11-23T08:24:33;99390.75;;;16.05;100.00
11523;BME280;40093;43.224;27.910;2022-11-23T08:27:00;99372.22;;;16.02;100.00
11523;BME280;40093;43.224;27.910;2022-11-23T08:29:29;99376.66;;;16.12;100.00
11523;BME280;40093;43.224;27.910;2022-11-23T08:31:56;99370.59;;;16.17;100.00
11523;BME280;40093;43.224;27.910;2022-11-23T08:34:23;99375.94;;;16.24;100.00
11523;BME280;40093;43.224;27.910;2022-11-23T08:36:50;99379.38;;;16.28;100.00
11523;BME280;40093;43.224;27.910;2022-11-23T08:39:16;99378.16;;;16.29;100.00
11523;BME280;40093;43.224;27.910;2022-11-23T08:41:43;99381.28;;;16.31;100.00
11523;BME280;40093;43.224;27.910;2022-11-23T08:44:10;99381.97;;;16.35;100.00
11523;BME280;40093;43.224;27.910;2022-11-23T08:46:39;99368.63;;;16.30;100.00
11523;BME280;40093;43.224;27.910;2022-11-23T08:49:06;99375.72;;;16.31;100.00
11523;BME280;40093;43.224;27.910;2022-11-23T08:51:33;99379.81;;;16.27;100.00
11523;BME280;40093;43.224;27.910;2022-11-23T08:54:00;99366.94;;;16.20;100.00
11523;BME280;40093;43.224;27.910;2022-11-23T08:56:27;99365.69;;;16.21;100.00
11523;BME280;40093;43.224;27.910;2022-11-23T08:58:54;99363.03;;;16.18;100.00
11523;BME280;40093;43.224;27.910;2022-11-23T09:01:21;99374.59;;;16.16;100.00
11523;BME280;40093;43.224;27.910;2022-11-23T09:03:49;99375.00;;;16.15;100.00
11523;BME280;40093;43.224;27.910;2022-11-23T09:06:16;99362.69;;;16.16;100.00
11523;BME280;40093;43.224;27.910;2022-11-23T09:08:42;99363.03;;;16.18;100.00
11523;BME280;40093;43.224;27.910;2022-11-23T09:11:11;99356.38;;;16.15;100.00
11523;BME280;40093;43.224;27.910;2022-11-23T09:13:39;99363.63;;;16.25;100.00
11523;BME280;40093;43.224;27.910;2022-11-23T09:16:06;99367.16;;;16.26;100.00
11523;BME280;40093;43.224;27.910;2022-11-23T09:18:33;99350.28;;;16.20;100.00
11523;BME280;40093;43.224;27.910;2022-11-23T09:21:04;99360.84;;;16.25;100.00
11523;BME280;40093;43.224;27.910;2022-11-23T09:23:31;99363.63;;;16.25;100.00
11523;BME280;40093;43.224;27.910;2022-11-23T09:25:58;99364.38;;;16.13;100.00
11523;BME280;40093;43.224;27.910;2022-11-23T09:28:25;99351.56;;;16.03;100.00
11523;BME280;40093;43.224;27.910;2022-11-23T09:30:53;99348.91;;;16.00;100.00
11523;BME280;40093;43.224;27.910;2022-11-23T09:33:20;99348.91;;;16.00;100.00
11523;BME280;40093;43.224;27.910;2022-11-23T09:35:53;99338.00;;;15.93;100.00
11523;BME280;40093;43.224;27.910;2022-11-23T09:38:22;99330.88;;;15.92;100.00
11523;BME280;40093;43.224;27.910;2022-11-23T09:40:55;99328.44;;;15.81;100.00
11523;BME280;40093;43.224;27.910;2022-11-23T09:43:37;99337.09;;;15.83;100.00
11523;BME280;40093;43.224;27.910;2022-11-23T09:46:12;99333.31;;;15.90;100.00
11523;BME280;40093;43.224;27.910;2022-11-23T09:48:52;99335.06;;;15.84;100.00
11523;BME280;40093;43.224;27.910;2022-11-23T09:51:21;99322.50;;;15.79;100.00
11523;BME280;40093;43.224;27.910;2022-11-23T09:53:52;99334.22;;;15.87;100.00
11523;BME280;40093;43.224;27.910;2022-11-23T09:56:23;99338.53;;;15.88;100.00
11523;BME280;40093;43.224;27.910;2022-11-23T09:58:54;99338.31;;;15.82;100.00
11523;BME280;40093;43.224;27.910;2022-11-23T10:01:21;99334.22;;;15.87;100.00
11523;BME280;40093;43.224;27.910;2022-11-23T10:03:48;99321.44;;;15.89;100.00
11523;BME280;40093;43.224;27.910;2022-11-23T10:06:18;99320.59;;;15.92;100.00
11523;BME280;40093;43.224;27.910;2022-11-23T10:08:56;99317.44;;;15.90;100.00
11523;BME280;40093;43.224;27.910;2022-11-23T10:11:43;99314.34;;;15.88;100.00
11523;BME280;40093;43.224;27.910;2022-11-23T10:14:26;99319.78;;;15.92;100.00
11523;BME280;40093;43.224;27.910;2022-11-23T10:17:02;99314.34;;;15.88;100.00
11523;BME280;40093;43.224;27.910;2022-11-23T10:19:45;99309.88;;;15.78;100.00
11523;BME280;40093;43.224;27.910;2022-11-23T10:22:20;99308.13;;;15.84;100.00
11523;BME280;40093;43.224;27.910;2022-11-23T10:24:51;99298.47;;;15.89;100.00
11523;BME280;40093;43.224;27.910;2022-11-23T10:27:20;99309.06;;;16.06;100.00
11523;BME280;40093;43.224;27.910;2022-11-23T10:29:47;99306.63;;;16.08;100.00
11523;BME280;40093;43.224;27.910;2022-11-23T10:32:23;99305.19;;;16.16;100.00
11523;BME280;40093;43.224;27.910;2022-11-23T10:34:59;99297.44;;;16.24;100.00
11523;BME280;40093;43.224;27.910;2022-11-23T10:37:28;99295.78;;;16.26;100.00
11523;BME280;40093;43.224;27.910;2022-11-23T10:39:56;99295.31;;;16.15;100.00
11523;BME280;40093;43.224;27.910;2022-11-23T10:42:28;99292.88;;;16.17;100.00
11523;BME280;40093;43.224;27.910;2022-11-23T10:44:58;99289.66;;;16.19;100.00
11523;BME280;40093;43.224;27.910;2022-11-23T10:47:37;99290.00;;;16.21;100.00
11523;BME280;40093;43.224;27.910;2022-11-23T10:50:20;99286.44;;;16.20;100.00
11523;BME280;40093;43.224;27.910;2022-11-23T10:52:55;99282.22;;;16.28;100.00
11523;BME280;40093;43.224;27.910;2022-11-23T10:55:27;99286.38;;;16.36;100.00
11523;BME280;40093;43.224;27.910;2022-11-23T10:57:54;99279.03;;;16.42;100.00
11523;BME280;40093;43.224;27.910;2022-11-23T11:00:24;99276.47;;;16.48;100.00
11523;BME280;40093;43.224;27.910;2022-11-23T11:02:53;99276.06;;;16.49;100.00
11523;BME280;40093;43.224;27.910;2022-11-23T11:05:27;99272.94;;;16.47;100.00
11523;BME280;40093;43.224;27.910;2022-11-23T11:07:56;99274.06;;;16.37;100.00
11523;BME280;40093;43.224;27.910;2022-11-23T11:10:35;99272.72;;;16.42;100.00
11523;BME280;40093;43.224;27.910;2022-11-23T11:13:20;99270.06;;;16.38;100.00
11523;BME280;40093;43.224;27.910;2022-11-23T11:15:51;99275.41;;;16.45;100.00
11523;BME280;40093;43.224;27.910;2022-11-23T11:18:18;99255.38;;;16.50;100.00
11523;BME280;40093;43.224;27.910;2022-11-23T11:20:46;99259.81;;;16.48;100.00
11523;BME280;40093;43.224;27.910;2022-11-23T11:23:16;99259.28;;;16.53;100.00
11523;BME280;40093;43.224;27.910;2022-11-23T11:25:46;99260.72;;;16.57;100.00
11523;BME280;40093;43.224;27.910;2022-11-23T11:28:23;99255.16;;;16.57;100.00
11523;BME280;40093;43.224;27.910;2022-11-23T11:30:58;99247.28;;;16.56;100.00
11523;BME280;40093;43.224;27.910;2022-11-23T11:33:33;99252.34;;;16.70;100.00
11523;BME280;40093;43.224;27.910;2022-11-23T11:36:03;99255.72;;;16.77;100.00
11523;BME280;40093;43.224;27.910;2022-11-23T11:38:34;99247.00;;;16.75;100.00
11523;BME280;40093;43.224;27.910;2022-11-23T11:41:06;99247.13;;;16.84;100.00
11523;BME280;40093;43.224;27.910;2022-11-23T11:43:37;99247.13;;;16.84;100.00
11523;BME280;40093;43.224;27.910;2022-11-23T11:46:11;99258.69;;;16.83;100.00
11523;BME280;40093;43.224;27.910;2022-11-23T11:48:41;99247.69;;;16.79;100.00
11523;BME280;40093;43.224;27.910;2022-11-23T11:51:18;99250.91;;;16.65;100.00
11523;BME280;40093;43.224;27.910;2022-11-23T11:53:52;99250.38;;;16.58;100.00
11523;BME280;40093;43.224;27.910;2022-11-23T11:56:27;99250.69;;;16.60;100.00
11523;BME280;40093;43.224;27.910;2022-11-23T11:58:58;99237.38;;;16.42;100.00
11523;BME280;40093;43.224;27.910;2022-11-23T12:01:34;99244.63;;;16.40;100.00
11523;BME280;40093;43.224;27.910;2022-11-23T12:04:06;99248.28;;;16.49;100.00
11523;BME280;40093;43.224;27.910;2022-11-23T12:06:38;99227.72;;;16.34;100.00
11523;BME280;40093;43.224;27.910;2022-11-23T12:09:11;99245.38;;;16.40;100.00
11523;BME280;40093;43.224;27.910;2022-11-23T12:11:41;99252.50;;;16.41;100.00
11523;BME280;40093;43.224;27.910;2022-11-23T12:14:11;99263.16;;;16.43;100.00
11523;BME280;40093;43.224;27.910;2022-11-23T12:16:46;99257.69;;;16.27;100.00
11523;BME280;40093;43.224;27.910;2022-11-23T12:19:18;99260.91;;;16.25;100.00
11523;BME280;40093;43.224;27.910;2022-11-23T12:22:03;99256.38;;;16.19;100.00
11523;BME280;40093;43.224;27.910;2022-11-23T12:24:47;99271.66;;;16.23;100.00
11523;BME280;40093;43.224;27.910;2022-11-23T12:27:26;99256.56;;;16.12;100.00
11523;BME280;40093;43.224;27.910;2022-11-23T12:30:03;99264.22;;;16.08;100.00
11523;BME280;40093;43.224;27.910;2022-11-23T12:32:49;99264.47;;;16.13;100.00
11523;BME280;40093;43.224;27.910;2022-11-23T12:35:33;99272.78;;;16.13;100.00
11523;BME280;40093;43.224;27.910;2022-11-23T12:38:10;99274.88;;;16.09;100.00
11523;BME280;40093;43.224;27.910;2022-11-23T12:40:57;99275.88;;;16.03;100.00
11523;BME280;40093;43.224;27.910;2022-11-23T12:43:31;99271.09;;;16.03;100.00
11523;BME280;40093;43.224;27.910;2022-11-23T12:46:10;99281.31;;;16.06;100.00
11523;BME280;40093;43.224;27.910;2022-11-23T12:49:00;99281.97;;;15.98;100.00
11523;BME280;40093;43.224;27.910;2022-11-23T12:51:35;99282.06;;;15.94;100.00